WLF514 KPHX-KDFW
Flight info
| Callsign | WLF514 |
|---|---|
| Flight time | 1h 50m |
| Altitude | 39000 |
| Route | BROAK1 MAXXO TXO TURKI JOVEM6 |
| Aircraft | B738/M-SDE2E3FGHIRWXY/LB1 |
Departure
| Time | 2026-05-05 23:51 |
|---|---|
| Airport | Phoenix Sky Harbor International Airport (KPHX) |
Arrival
| Time | 2026-05-06 01:41 |
|---|---|
| Airport | Dallas Fort Worth International Airport (KDFW) |
| Time | Latitude | Longitude | Altitude | Speed | Heading |
|---|---|---|---|---|---|
| 2026-05-05 23:11 | 33.42475 | -112.01833 | 1120 ft | 0 kts | 269° |
| 2026-05-05 23:13 | 33.42475 | -112.01826 | 1115 ft | 0 kts | 269° |
| 2026-05-05 23:38 | 33.42475 | -112.01840 | 1119 ft | 4 kts | 269° |
| 2026-05-05 23:38 | 33.42475 | -112.01842 | 1119 ft | 0 kts | 269° |
| 2026-05-05 23:42 | 33.42475 | -112.01847 | 1121 ft | 4 kts | 274° |
| 2026-05-05 23:42 | 33.42493 | -112.01883 | 1117 ft | 5 kts | 330° |
| 2026-05-05 23:42 | 33.42533 | -112.01886 | 1120 ft | 7 kts | 1° |
| 2026-05-05 23:42 | 33.42582 | -112.01885 | 1121 ft | 6 kts | 0° |
| 2026-05-05 23:43 | 33.42623 | -112.01885 | 1118 ft | 6 kts | 360° |
| 2026-05-05 23:43 | 33.42658 | -112.01886 | 1120 ft | 5 kts | 359° |
| 2026-05-05 23:43 | 33.42692 | -112.01886 | 1118 ft | 5 kts | 359° |
| 2026-05-05 23:43 | 33.42730 | -112.01887 | 1119 ft | 7 kts | 359° |
| 2026-05-05 23:44 | 33.42771 | -112.01869 | 1123 ft | 7 kts | 63° |
| 2026-05-05 23:44 | 33.42775 | -112.01783 | 1124 ft | 13 kts | 91° |
| 2026-05-05 23:44 | 33.42774 | -112.01695 | 1124 ft | 8 kts | 88° |
| 2026-05-05 23:44 | 33.42812 | -112.01657 | 1118 ft | 8 kts | 6° |
| 2026-05-05 23:45 | 33.42866 | -112.01658 | 1123 ft | 8 kts | 358° |
| 2026-05-05 23:45 | 33.42936 | -112.01662 | 1125 ft | 12 kts | 357° |
| 2026-05-05 23:45 | 33.42986 | -112.01647 | 1118 ft | 7 kts | 48° |
| 2026-05-05 23:45 | 33.42998 | -112.01579 | 1121 ft | 12 kts | 89° |
| 2026-05-05 23:46 | 33.42996 | -112.01477 | 1123 ft | 13 kts | 92° |
| 2026-05-05 23:46 | 33.42995 | -112.01338 | 1120 ft | 19 kts | 90° |
| 2026-05-05 23:46 | 33.42995 | -112.01179 | 1125 ft | 20 kts | 90° |
| 2026-05-05 23:46 | 33.42995 | -112.00986 | 1126 ft | 23 kts | 90° |
| 2026-05-05 23:47 | 33.42995 | -112.00795 | 1122 ft | 23 kts | 90° |
| 2026-05-05 23:47 | 33.42995 | -112.00610 | 1123 ft | 22 kts | 90° |
| 2026-05-05 23:47 | 33.42995 | -112.00430 | 1126 ft | 22 kts | 90° |
| 2026-05-05 23:47 | 33.42994 | -112.00223 | 1124 ft | 26 kts | 90° |
| 2026-05-05 23:48 | 33.42995 | -112.00016 | 1123 ft | 24 kts | 90° |
| 2026-05-05 23:48 | 33.42994 | -111.99809 | 1126 ft | 26 kts | 90° |
| 2026-05-05 23:48 | 33.42994 | -111.99594 | 1126 ft | 25 kts | 90° |
| 2026-05-05 23:48 | 33.42994 | -111.99452 | 1127 ft | 12 kts | 90° |
| 2026-05-05 23:49 | 33.43005 | -111.99357 | 1121 ft | 10 kts | 48° |
| 2026-05-05 23:49 | 33.43068 | -111.99343 | 1135 ft | 8 kts | 355° |
| 2026-05-05 23:49 | 33.43103 | -111.99380 | 1134 ft | 7 kts | 277° |
| 2026-05-05 23:49 | 33.43103 | -111.99395 | 1134 ft | 0 kts | 267° |
| 2026-05-05 23:50 | 33.43102 | -111.99432 | 1134 ft | 22 kts | 268° |
| 2026-05-05 23:50 | 33.43103 | -111.99915 | 1130 ft | 92 kts | 270° |
| 2026-05-05 23:50 | 33.43101 | -112.00934 | 1133 ft | 150 kts | 269° |
| 2026-05-05 23:50 | 33.43127 | -112.02245 | 1634 ft | 158 kts | 269° |
| 2026-05-05 23:51 | 33.43150 | -112.03572 | 2284 ft | 164 kts | 269° |
| 2026-05-05 23:51 | 33.43150 | -112.04487 | 2818 ft | 164 kts | 266° |
| 2026-05-05 23:51 | 33.43078 | -112.06427 | 3498 ft | 187 kts | 264° |
| 2026-05-05 23:51 | 33.42911 | -112.07461 | 3930 ft | 187 kts | 250° |
| 2026-05-05 23:52 | 33.42393 | -112.08938 | 4372 ft | 202 kts | 246° |
| 2026-05-05 23:52 | 33.41810 | -112.10567 | 4636 ft | 223 kts | 247° |
| 2026-05-05 23:52 | 33.41183 | -112.12336 | 5040 ft | 236 kts | 248° |
| 2026-05-05 23:52 | 33.40537 | -112.14176 | 5628 ft | 246 kts | 246° |
| 2026-05-05 23:53 | 33.39782 | -112.16068 | 6285 ft | 256 kts | 237° |
| 2026-05-05 23:53 | 33.38537 | -112.17582 | 7090 ft | 262 kts | 213° |
| 2026-05-05 23:53 | 33.36780 | -112.18259 | 7756 ft | 276 kts | 186° |
| 2026-05-05 23:53 | 33.34846 | -112.17870 | 8438 ft | 290 kts | 163° |
| 2026-05-05 23:54 | 33.32971 | -112.16990 | 9356 ft | 289 kts | 161° |
| 2026-05-05 23:54 | 33.31081 | -112.16135 | 10098 ft | 293 kts | 162° |
| 2026-05-05 23:54 | 33.29139 | -112.15290 | 10702 ft | 303 kts | 161° |
| 2026-05-05 23:54 | 33.27309 | -112.13910 | 11169 ft | 322 kts | 139° |
| 2026-05-05 23:55 | 33.25775 | -112.11926 | 11945 ft | 325 kts | 135° |
| 2026-05-05 23:55 | 33.25242 | -112.11161 | 12268 ft | 327 kts | 129° |
| 2026-05-05 23:55 | 33.24634 | -112.09869 | 12695 ft | 334 kts | 114° |
| 2026-05-05 23:55 | 33.24273 | -112.07088 | 13473 ft | 347 kts | 90° |
| 2026-05-05 23:56 | 33.24586 | -112.04198 | 14141 ft | 355 kts | 83° |
| 2026-05-05 23:56 | 33.24986 | -112.01270 | 14844 ft | 360 kts | 83° |
| 2026-05-05 23:56 | 33.25370 | -111.98304 | 15580 ft | 364 kts | 83° |
| 2026-05-05 23:56 | 33.25733 | -111.95330 | 16298 ft | 368 kts | 84° |
| 2026-05-05 23:57 | 33.26291 | -111.92292 | 16981 ft | 375 kts | 68° |
| 2026-05-05 23:57 | 33.27460 | -111.89528 | 17731 ft | 379 kts | 62° |
| 2026-05-05 23:57 | 33.28740 | -111.86710 | 18402 ft | 384 kts | 61° |
| 2026-05-05 23:57 | 33.30011 | -111.83907 | 18861 ft | 393 kts | 61° |
| 2026-05-05 23:58 | 33.31317 | -111.80992 | 19318 ft | 402 kts | 62° |
| 2026-05-05 23:58 | 33.32641 | -111.78002 | 19773 ft | 411 kts | 62° |
| 2026-05-05 23:58 | 33.33985 | -111.74939 | 20240 ft | 420 kts | 63° |
| 2026-05-05 23:58 | 33.35348 | -111.71813 | 20728 ft | 427 kts | 63° |
| 2026-05-05 23:59 | 33.36730 | -111.68636 | 21204 ft | 435 kts | 63° |
| 2026-05-05 23:59 | 33.38138 | -111.65394 | 21680 ft | 443 kts | 63° |
| 2026-05-05 23:59 | 33.39570 | -111.62093 | 22147 ft | 451 kts | 63° |
| 2026-05-05 23:59 | 33.41026 | -111.58739 | 22599 ft | 458 kts | 63° |
| 2026-05-06 00:00 | 33.42507 | -111.55327 | 23009 ft | 466 kts | 63° |
| 2026-05-06 00:00 | 33.42990 | -111.54166 | 23241 ft | 465 kts | 65° |
| 2026-05-06 00:00 | 33.43736 | -111.52174 | 23515 ft | 468 kts | 69° |
| 2026-05-06 00:00 | 33.44929 | -111.48506 | 23818 ft | 476 kts | 72° |
| 2026-05-06 00:01 | 33.46046 | -111.44755 | 24219 ft | 481 kts | 73° |
| 2026-05-06 00:01 | 33.47164 | -111.40963 | 24728 ft | 484 kts | 73° |
| 2026-05-06 00:01 | 33.48313 | -111.37160 | 25145 ft | 489 kts | 72° |
| 2026-05-06 00:01 | 33.49503 | -111.33316 | 25517 ft | 494 kts | 72° |
| 2026-05-06 00:02 | 33.50719 | -111.29437 | 25865 ft | 500 kts | 72° |
| 2026-05-06 00:02 | 33.51954 | -111.25519 | 26280 ft | 505 kts | 72° |
| 2026-05-06 00:02 | 33.53197 | -111.21556 | 26633 ft | 510 kts | 73° |
| 2026-05-06 00:02 | 33.54393 | -111.17540 | 27061 ft | 512 kts | 75° |
| 2026-05-06 00:03 | 33.55539 | -111.13489 | 27489 ft | 515 kts | 76° |
| 2026-05-06 00:03 | 33.56669 | -111.09395 | 27840 ft | 520 kts | 76° |
| 2026-05-06 00:03 | 33.57801 | -111.05264 | 28166 ft | 524 kts | 76° |
| 2026-05-06 00:03 | 33.58948 | -111.01091 | 28520 ft | 529 kts | 76° |
| 2026-05-06 00:04 | 33.60109 | -110.96890 | 28878 ft | 533 kts | 76° |
| 2026-05-06 00:04 | 33.61283 | -110.92659 | 29208 ft | 537 kts | 76° |
| 2026-05-06 00:04 | 33.62469 | -110.88397 | 29631 ft | 539 kts | 76° |
| 2026-05-06 00:04 | 33.63662 | -110.84113 | 29947 ft | 543 kts | 76° |
| 2026-05-06 00:05 | 33.65211 | -110.78523 | 30465 ft | 545 kts | 76° |
| 2026-05-06 00:05 | 33.65928 | -110.75930 | 30679 ft | 546 kts | 76° |
| 2026-05-06 00:05 | 33.67132 | -110.71589 | 30925 ft | 551 kts | 76° |
| 2026-05-06 00:06 | 33.68345 | -110.67209 | 31245 ft | 553 kts | 76° |
| 2026-05-06 00:06 | 33.69558 | -110.62818 | 31554 ft | 556 kts | 76° |
| 2026-05-06 00:06 | 33.70774 | -110.58407 | 31863 ft | 557 kts | 76° |
| 2026-05-06 00:06 | 33.71991 | -110.53979 | 32234 ft | 558 kts | 76° |
| 2026-05-06 00:07 | 33.73208 | -110.49542 | 32501 ft | 561 kts | 76° |
| 2026-05-06 00:07 | 33.74429 | -110.45079 | 32702 ft | 563 kts | 76° |
| 2026-05-06 00:07 | 33.75657 | -110.40600 | 32890 ft | 566 kts | 76° |
| 2026-05-06 00:07 | 33.76889 | -110.36090 | 33109 ft | 569 kts | 76° |
| 2026-05-06 00:08 | 33.78121 | -110.31571 | 33402 ft | 570 kts | 76° |
| 2026-05-06 00:08 | 33.79339 | -110.27109 | 33788 ft | 568 kts | 75° |
| 2026-05-06 00:08 | 33.80568 | -110.22610 | 34204 ft | 565 kts | 75° |
| 2026-05-06 00:08 | 33.81790 | -110.18134 | 34551 ft | 563 kts | 75° |
| 2026-05-06 00:09 | 33.83006 | -110.13667 | 34842 ft | 562 kts | 76° |
| 2026-05-06 00:09 | 33.84217 | -110.09197 | 35078 ft | 562 kts | 75° |
| 2026-05-06 00:09 | 33.85426 | -110.04723 | 35343 ft | 562 kts | 75° |
| 2026-05-06 00:09 | 33.86631 | -110.00256 | 35672 ft | 560 kts | 75° |
| 2026-05-06 00:10 | 33.87828 | -109.95817 | 36109 ft | 555 kts | 75° |
| 2026-05-06 00:10 | 33.88142 | -109.94652 | 36215 ft | 555 kts | 75° |
| 2026-05-06 00:10 | 33.88877 | -109.91923 | 36433 ft | 553 kts | 75° |
| 2026-05-06 00:10 | 33.90062 | -109.87520 | 36698 ft | 553 kts | 75° |
| 2026-05-06 00:11 | 33.91244 | -109.83113 | 36908 ft | 554 kts | 75° |
| 2026-05-06 00:11 | 33.92425 | -109.78702 | 37110 ft | 553 kts | 75° |
| 2026-05-06 00:11 | 33.93602 | -109.74304 | 37447 ft | 551 kts | 75° |
| 2026-05-06 00:11 | 33.94771 | -109.69925 | 37775 ft | 548 kts | 75° |
| 2026-05-06 00:12 | 33.95935 | -109.65559 | 38065 ft | 547 kts | 74° |
| 2026-05-06 00:12 | 33.97098 | -109.61191 | 38283 ft | 547 kts | 75° |
| 2026-05-06 00:12 | 33.98255 | -109.56835 | 38693 ft | 543 kts | 75° |
| 2026-05-06 00:12 | 33.99400 | -109.52523 | 38910 ft | 541 kts | 75° |
| 2026-05-06 00:13 | 34.00548 | -109.48186 | 38926 ft | 544 kts | 75° |
| 2026-05-06 00:13 | 34.02848 | -109.39466 | 38980 ft | 548 kts | 75° |
| 2026-05-06 00:14 | 34.05160 | -109.30688 | 38990 ft | 551 kts | 75° |
| 2026-05-06 00:14 | 34.07488 | -109.21868 | 39000 ft | 554 kts | 75° |
| 2026-05-06 00:15 | 34.09809 | -109.13026 | 38959 ft | 550 kts | 75° |
| 2026-05-06 00:15 | 34.10860 | -109.09010 | 38930 ft | 547 kts | 76° |
| 2026-05-06 00:16 | 34.13125 | -109.00321 | 38872 ft | 546 kts | 76° |
| 2026-05-06 00:16 | 34.15391 | -108.91590 | 38808 ft | 545 kts | 76° |
| 2026-05-06 00:17 | 34.17652 | -108.82857 | 38771 ft | 545 kts | 76° |
| 2026-05-06 00:17 | 34.19907 | -108.74119 | 38753 ft | 545 kts | 76° |
| 2026-05-06 00:18 | 34.22160 | -108.65364 | 38762 ft | 546 kts | 76° |
| 2026-05-06 00:18 | 34.24413 | -108.56575 | 38786 ft | 548 kts | 76° |
| 2026-05-06 00:19 | 34.26667 | -108.47756 | 38783 ft | 550 kts | 76° |
| 2026-05-06 00:19 | 34.28921 | -108.38904 | 38766 ft | 552 kts | 76° |
| 2026-05-06 00:20 | 34.31175 | -108.30028 | 38780 ft | 553 kts | 76° |
| 2026-05-06 00:20 | 34.32275 | -108.25681 | 38784 ft | 554 kts | 76° |
| 2026-05-06 00:21 | 34.34528 | -108.16752 | 38782 ft | 556 kts | 77° |
| 2026-05-06 00:21 | 34.36781 | -108.07792 | 38774 ft | 557 kts | 76° |
| 2026-05-06 00:22 | 34.38670 | -107.98755 | 38751 ft | 545 kts | 94° |
| 2026-05-06 00:22 | 34.38758 | -107.89672 | 38780 ft | 539 kts | 98° |
| 2026-05-06 00:23 | 34.38725 | -107.80591 | 38774 ft | 540 kts | 97° |
| 2026-05-06 00:23 | 34.38768 | -107.71502 | 38755 ft | 540 kts | 97° |
| 2026-05-06 00:24 | 34.38860 | -107.62485 | 38777 ft | 538 kts | 96° |
| 2026-05-06 00:24 | 34.38955 | -107.53435 | 38758 ft | 537 kts | 96° |
| 2026-05-06 00:25 | 34.39035 | -107.44419 | 38757 ft | 535 kts | 97° |
| 2026-05-06 00:25 | 34.39071 | -107.39897 | 38767 ft | 534 kts | 97° |
| 2026-05-06 00:26 | 34.39137 | -107.30918 | 38743 ft | 532 kts | 97° |
| 2026-05-06 00:26 | 34.39194 | -107.21961 | 38745 ft | 532 kts | 97° |
| 2026-05-06 00:27 | 34.39246 | -107.12939 | 38734 ft | 533 kts | 97° |
| 2026-05-06 00:27 | 34.39289 | -107.03949 | 38745 ft | 535 kts | 98° |
| 2026-05-06 00:28 | 34.39330 | -106.94921 | 38737 ft | 537 kts | 98° |
| 2026-05-06 00:28 | 34.39363 | -106.85918 | 38742 ft | 539 kts | 98° |
| 2026-05-06 00:29 | 34.39388 | -106.76817 | 38759 ft | 542 kts | 98° |
| 2026-05-06 00:29 | 34.39414 | -106.67665 | 38745 ft | 546 kts | 97° |
| 2026-05-06 00:30 | 34.39728 | -106.58419 | 38781 ft | 552 kts | 94° |
| 2026-05-06 00:30 | 34.39957 | -106.53873 | 38779 ft | 554 kts | 94° |
| 2026-05-06 00:31 | 34.40419 | -106.44558 | 38797 ft | 555 kts | 94° |
| 2026-05-06 00:31 | 34.40823 | -106.35198 | 38796 ft | 557 kts | 94° |
| 2026-05-06 00:32 | 34.41185 | -106.25833 | 38801 ft | 557 kts | 94° |
| 2026-05-06 00:32 | 34.41535 | -106.16469 | 38785 ft | 557 kts | 95° |
| 2026-05-06 00:33 | 34.41880 | -106.07098 | 38789 ft | 557 kts | 95° |
| 2026-05-06 00:33 | 34.42221 | -105.97727 | 38752 ft | 557 kts | 95° |
| 2026-05-06 00:34 | 34.42555 | -105.88378 | 38774 ft | 556 kts | 95° |
| 2026-05-06 00:34 | 34.42882 | -105.79031 | 38780 ft | 555 kts | 95° |
| 2026-05-06 00:35 | 34.43200 | -105.69688 | 38774 ft | 555 kts | 95° |
| 2026-05-06 00:35 | 34.43354 | -105.65125 | 38773 ft | 555 kts | 95° |
| 2026-05-06 00:36 | 34.43663 | -105.55800 | 38758 ft | 553 kts | 95° |
| 2026-05-06 00:36 | 34.43965 | -105.46500 | 38739 ft | 552 kts | 95° |
| 2026-05-06 00:37 | 34.44257 | -105.37229 | 38740 ft | 551 kts | 95° |
| 2026-05-06 00:37 | 34.44494 | -105.29530 | 38722 ft | 549 kts | 96° |
| 2026-05-06 00:38 | 34.44762 | -105.20286 | 38703 ft | 549 kts | 96° |
| 2026-05-06 00:38 | 34.45030 | -105.11039 | 38705 ft | 549 kts | 96° |
| 2026-05-06 00:39 | 34.45294 | -105.01796 | 38683 ft | 549 kts | 96° |
| 2026-05-06 00:39 | 34.45552 | -104.92540 | 38689 ft | 549 kts | 96° |
| 2026-05-06 00:40 | 34.45803 | -104.83266 | 38670 ft | 552 kts | 97° |
| 2026-05-06 00:40 | 34.45917 | -104.78930 | 38676 ft | 553 kts | 97° |
| 2026-05-06 00:41 | 34.46159 | -104.69583 | 38673 ft | 556 kts | 97° |
| 2026-05-06 00:41 | 34.46395 | -104.60196 | 38660 ft | 559 kts | 97° |
| 2026-05-06 00:42 | 34.46626 | -104.50762 | 38665 ft | 561 kts | 97° |
| 2026-05-06 00:42 | 34.46851 | -104.41283 | 38641 ft | 563 kts | 97° |
| 2026-05-06 00:43 | 34.47069 | -104.31782 | 38630 ft | 564 kts | 97° |
| 2026-05-06 00:43 | 34.47281 | -104.22284 | 38630 ft | 564 kts | 97° |
| 2026-05-06 00:44 | 34.47485 | -104.12787 | 38626 ft | 563 kts | 97° |
| 2026-05-06 00:44 | 34.47680 | -104.03314 | 38606 ft | 562 kts | 97° |
| 2026-05-06 00:45 | 34.47866 | -103.93924 | 38608 ft | 560 kts | 97° |
| 2026-05-06 00:45 | 34.47949 | -103.89602 | 38620 ft | 559 kts | 97° |
| 2026-05-06 00:46 | 34.48125 | -103.80190 | 38613 ft | 558 kts | 97° |
| 2026-05-06 00:46 | 34.48293 | -103.70800 | 38630 ft | 557 kts | 97° |
| 2026-05-06 00:47 | 34.48453 | -103.61429 | 38643 ft | 556 kts | 97° |
| 2026-05-06 00:47 | 34.48606 | -103.52086 | 38629 ft | 553 kts | 96° |
| 2026-05-06 00:48 | 34.48752 | -103.42767 | 38642 ft | 552 kts | 96° |
| 2026-05-06 00:48 | 34.48889 | -103.33476 | 38689 ft | 551 kts | 96° |
| 2026-05-06 00:49 | 34.49019 | -103.24197 | 38688 ft | 550 kts | 96° |
| 2026-05-06 00:49 | 34.49142 | -103.14921 | 38746 ft | 550 kts | 96° |
| 2026-05-06 00:50 | 34.49258 | -103.05631 | 38766 ft | 552 kts | 96° |
| 2026-05-06 00:50 | 34.49307 | -103.01550 | 38769 ft | 552 kts | 96° |
| 2026-05-06 00:51 | 34.49413 | -102.92229 | 38764 ft | 554 kts | 96° |
| 2026-05-06 00:51 | 34.49457 | -102.82877 | 38773 ft | 552 kts | 101° |
| 2026-05-06 00:52 | 34.48663 | -102.73756 | 38776 ft | 547 kts | 107° |
| 2026-05-06 00:52 | 34.47598 | -102.64620 | 38784 ft | 548 kts | 107° |
| 2026-05-06 00:53 | 34.46563 | -102.55439 | 38795 ft | 552 kts | 106° |
| 2026-05-06 00:53 | 34.45585 | -102.46202 | 38810 ft | 554 kts | 105° |
| 2026-05-06 00:54 | 34.44620 | -102.36921 | 38788 ft | 555 kts | 105° |
| 2026-05-06 00:54 | 34.43645 | -102.27637 | 38804 ft | 556 kts | 105° |
| 2026-05-06 00:55 | 34.42656 | -102.18342 | 38820 ft | 556 kts | 105° |
| 2026-05-06 00:55 | 34.42209 | -102.14171 | 38819 ft | 556 kts | 105° |
| 2026-05-06 00:56 | 34.41208 | -102.04898 | 38808 ft | 555 kts | 105° |
| 2026-05-06 00:56 | 34.40205 | -101.95654 | 38796 ft | 552 kts | 105° |
| 2026-05-06 00:57 | 34.39199 | -101.86454 | 38834 ft | 550 kts | 105° |
| 2026-05-06 00:57 | 34.38188 | -101.77283 | 38840 ft | 549 kts | 105° |
| 2026-05-06 00:58 | 34.37171 | -101.68124 | 38847 ft | 549 kts | 105° |
| 2026-05-06 00:58 | 34.36149 | -101.58978 | 38846 ft | 548 kts | 105° |
| 2026-05-06 00:59 | 34.35121 | -101.49842 | 38850 ft | 547 kts | 105° |
| 2026-05-06 00:59 | 34.34094 | -101.40777 | 38855 ft | 548 kts | 105° |
| 2026-05-06 01:00 | 34.33052 | -101.31641 | 38856 ft | 548 kts | 105° |
| 2026-05-06 01:00 | 34.32593 | -101.27635 | 38842 ft | 548 kts | 105° |
| 2026-05-06 01:01 | 34.31541 | -101.18503 | 38852 ft | 548 kts | 105° |
| 2026-05-06 01:01 | 34.30483 | -101.09371 | 38854 ft | 548 kts | 105° |
| 2026-05-06 01:02 | 34.29418 | -101.00242 | 38869 ft | 549 kts | 105° |
| 2026-05-06 01:02 | 34.28349 | -100.91128 | 38859 ft | 546 kts | 105° |
| 2026-05-06 01:03 | 34.27274 | -100.82038 | 38863 ft | 547 kts | 105° |
| 2026-05-06 01:03 | 34.26189 | -100.72934 | 38826 ft | 547 kts | 106° |
| 2026-05-06 01:04 | 34.25097 | -100.63827 | 38853 ft | 547 kts | 106° |
| 2026-05-06 01:04 | 34.23999 | -100.54723 | 38843 ft | 548 kts | 105° |
| 2026-05-06 01:05 | 34.22892 | -100.45603 | 38863 ft | 548 kts | 105° |
| 2026-05-06 01:05 | 34.22387 | -100.41466 | 38862 ft | 549 kts | 105° |
| 2026-05-06 01:06 | 34.21269 | -100.32338 | 38860 ft | 550 kts | 106° |
| 2026-05-06 01:06 | 34.19997 | -100.23326 | 38859 ft | 540 kts | 116° |
| 2026-05-06 01:07 | 34.17528 | -100.14891 | 38855 ft | 530 kts | 122° |
| 2026-05-06 01:07 | 34.14826 | -100.06627 | 38859 ft | 529 kts | 122° |
| 2026-05-06 01:08 | 34.12212 | -99.98299 | 38856 ft | 531 kts | 120° |
| 2026-05-06 01:08 | 34.09672 | -99.89932 | 38849 ft | 531 kts | 120° |
| 2026-05-06 01:09 | 34.07141 | -99.81565 | 38830 ft | 530 kts | 120° |
| 2026-05-06 01:09 | 34.04601 | -99.73226 | 38852 ft | 530 kts | 120° |
| 2026-05-06 01:10 | 34.02045 | -99.64882 | 38841 ft | 531 kts | 120° |
| 2026-05-06 01:10 | 34.00951 | -99.61320 | 38811 ft | 532 kts | 120° |
| 2026-05-06 01:10 | 33.99657 | -99.57117 | 38352 ft | 538 kts | 120° |
| 2026-05-06 01:11 | 33.98355 | -99.52879 | 37782 ft | 537 kts | 120° |
| 2026-05-06 01:11 | 33.97062 | -99.48668 | 37241 ft | 535 kts | 120° |
| 2026-05-06 01:11 | 33.95769 | -99.44473 | 36751 ft | 533 kts | 120° |
| 2026-05-06 01:11 | 33.94477 | -99.40305 | 36352 ft | 529 kts | 120° |
| 2026-05-06 01:12 | 33.93195 | -99.36177 | 35971 ft | 524 kts | 120° |
| 2026-05-06 01:12 | 33.91919 | -99.32082 | 35587 ft | 521 kts | 121° |
| 2026-05-06 01:12 | 33.90649 | -99.28013 | 35192 ft | 518 kts | 121° |
| 2026-05-06 01:12 | 33.89384 | -99.23967 | 34795 ft | 515 kts | 121° |
| 2026-05-06 01:13 | 33.88124 | -99.19945 | 34403 ft | 512 kts | 121° |
| 2026-05-06 01:13 | 33.86871 | -99.15948 | 33947 ft | 509 kts | 121° |
| 2026-05-06 01:13 | 33.85614 | -99.11951 | 33568 ft | 516 kts | 121° |
| 2026-05-06 01:13 | 33.84321 | -99.07867 | 33158 ft | 528 kts | 120° |
| 2026-05-06 01:14 | 33.81699 | -98.99547 | 32301 ft | 531 kts | 120° |
| 2026-05-06 01:14 | 33.80408 | -98.95421 | 31880 ft | 525 kts | 120° |
| 2026-05-06 01:14 | 33.79124 | -98.91329 | 31479 ft | 520 kts | 120° |
| 2026-05-06 01:15 | 33.77846 | -98.87280 | 31082 ft | 516 kts | 120° |
| 2026-05-06 01:15 | 33.77683 | -98.86766 | 31031 ft | 515 kts | 120° |
| 2026-05-06 01:15 | 33.76750 | -98.83830 | 30762 ft | 521 kts | 120° |
| 2026-05-06 01:15 | 33.75438 | -98.79721 | 30338 ft | 531 kts | 119° |
| 2026-05-06 01:16 | 33.74118 | -98.75563 | 29905 ft | 533 kts | 119° |
| 2026-05-06 01:16 | 33.72809 | -98.71416 | 29449 ft | 528 kts | 118° |
| 2026-05-06 01:16 | 33.71515 | -98.67306 | 29007 ft | 523 kts | 118° |
| 2026-05-06 01:16 | 33.70249 | -98.63293 | 28565 ft | 519 kts | 118° |
| 2026-05-06 01:17 | 33.68972 | -98.59262 | 28134 ft | 515 kts | 118° |
| 2026-05-06 01:17 | 33.67702 | -98.55265 | 27699 ft | 511 kts | 118° |
| 2026-05-06 01:17 | 33.66438 | -98.51294 | 27272 ft | 506 kts | 118° |
| 2026-05-06 01:17 | 33.65189 | -98.47371 | 26805 ft | 499 kts | 119° |
| 2026-05-06 01:18 | 33.63957 | -98.43507 | 26412 ft | 494 kts | 119° |
| 2026-05-06 01:18 | 33.62726 | -98.39662 | 26000 ft | 492 kts | 119° |
| 2026-05-06 01:18 | 33.61499 | -98.35836 | 25569 ft | 491 kts | 118° |
| 2026-05-06 01:18 | 33.60275 | -98.32022 | 25148 ft | 489 kts | 118° |
| 2026-05-06 01:19 | 33.59055 | -98.28222 | 24741 ft | 487 kts | 118° |
| 2026-05-06 01:19 | 33.57842 | -98.24443 | 24332 ft | 484 kts | 118° |
| 2026-05-06 01:19 | 33.56644 | -98.20706 | 23913 ft | 476 kts | 118° |
| 2026-05-06 01:19 | 33.55466 | -98.17038 | 23490 ft | 469 kts | 118° |
| 2026-05-06 01:20 | 33.54296 | -98.13404 | 22981 ft | 467 kts | 118° |
| 2026-05-06 01:20 | 33.54182 | -98.13049 | 22935 ft | 467 kts | 118° |
| 2026-05-06 01:20 | 33.53257 | -98.10184 | 22572 ft | 466 kts | 118° |
| 2026-05-06 01:20 | 33.52086 | -98.06565 | 22099 ft | 465 kts | 118° |
| 2026-05-06 01:21 | 33.50921 | -98.02963 | 21646 ft | 462 kts | 118° |
| 2026-05-06 01:21 | 33.49766 | -97.99393 | 21206 ft | 458 kts | 118° |
| 2026-05-06 01:21 | 33.48617 | -97.95843 | 20767 ft | 454 kts | 118° |
| 2026-05-06 01:21 | 33.47480 | -97.92333 | 20351 ft | 449 kts | 118° |
| 2026-05-06 01:22 | 33.46361 | -97.88869 | 19936 ft | 444 kts | 118° |
| 2026-05-06 01:22 | 33.45258 | -97.85435 | 19513 ft | 439 kts | 117° |
| 2026-05-06 01:22 | 33.44175 | -97.82058 | 19100 ft | 430 kts | 117° |
| 2026-05-06 01:22 | 33.43116 | -97.78761 | 18680 ft | 419 kts | 118° |
| 2026-05-06 01:23 | 33.42094 | -97.75589 | 18311 ft | 409 kts | 118° |
| 2026-05-06 01:23 | 33.41074 | -97.72439 | 17904 ft | 404 kts | 118° |
| 2026-05-06 01:23 | 33.40062 | -97.69317 | 17627 ft | 400 kts | 118° |
| 2026-05-06 01:23 | 33.39061 | -97.66230 | 17299 ft | 397 kts | 118° |
| 2026-05-06 01:24 | 33.37777 | -97.63383 | 16891 ft | 380 kts | 139° |
| 2026-05-06 01:24 | 33.35975 | -97.61175 | 16618 ft | 366 kts | 145° |
| 2026-05-06 01:24 | 33.34132 | -97.59076 | 16262 ft | 365 kts | 145° |
| 2026-05-06 01:24 | 33.32298 | -97.56976 | 15902 ft | 365 kts | 145° |
| 2026-05-06 01:25 | 33.30478 | -97.54858 | 15558 ft | 365 kts | 144° |
| 2026-05-06 01:25 | 33.30355 | -97.54715 | 15535 ft | 364 kts | 144° |
| 2026-05-06 01:25 | 33.28848 | -97.52949 | 15252 ft | 364 kts | 144° |
| 2026-05-06 01:25 | 33.27045 | -97.50832 | 14900 ft | 363 kts | 144° |
| 2026-05-06 01:26 | 33.25243 | -97.48716 | 14521 ft | 362 kts | 143° |
| 2026-05-06 01:26 | 33.23451 | -97.46614 | 14194 ft | 361 kts | 143° |
| 2026-05-06 01:26 | 33.22243 | -97.45197 | 13961 ft | 360 kts | 143° |
| 2026-05-06 01:26 | 33.20464 | -97.43113 | 13621 ft | 357 kts | 143° |
| 2026-05-06 01:27 | 33.18696 | -97.41046 | 13251 ft | 353 kts | 143° |
| 2026-05-06 01:27 | 33.16976 | -97.39030 | 12888 ft | 341 kts | 143° |
| 2026-05-06 01:27 | 33.15313 | -97.37083 | 12559 ft | 329 kts | 143° |
| 2026-05-06 01:27 | 33.13703 | -97.35201 | 12254 ft | 320 kts | 143° |
| 2026-05-06 01:28 | 33.12116 | -97.33352 | 12071 ft | 321 kts | 143° |
| 2026-05-06 01:28 | 33.10512 | -97.31488 | 12036 ft | 322 kts | 143° |
| 2026-05-06 01:28 | 33.08921 | -97.29631 | 12018 ft | 319 kts | 143° |
| 2026-05-06 01:28 | 33.07334 | -97.27779 | 12023 ft | 320 kts | 143° |
| 2026-05-06 01:29 | 33.05742 | -97.25923 | 12017 ft | 321 kts | 143° |
| 2026-05-06 01:29 | 33.04143 | -97.24060 | 12016 ft | 321 kts | 143° |
| 2026-05-06 01:29 | 33.02545 | -97.22198 | 12012 ft | 322 kts | 143° |
| 2026-05-06 01:29 | 33.00966 | -97.20359 | 12011 ft | 322 kts | 143° |
| 2026-05-06 01:30 | 32.99374 | -97.18519 | 11996 ft | 311 kts | 147° |
| 2026-05-06 01:30 | 32.98757 | -97.17940 | 11978 ft | 298 kts | 157° |
| 2026-05-06 01:30 | 32.97873 | -97.17417 | 11981 ft | 277 kts | 169° |
| 2026-05-06 01:30 | 32.96070 | -97.16912 | 11699 ft | 258 kts | 184° |
| 2026-05-06 01:31 | 32.94319 | -97.16786 | 11447 ft | 248 kts | 186° |
| 2026-05-06 01:31 | 32.92622 | -97.16711 | 11206 ft | 241 kts | 186° |
| 2026-05-06 01:31 | 32.90965 | -97.16641 | 10971 ft | 238 kts | 187° |
| 2026-05-06 01:31 | 32.89307 | -97.16569 | 10766 ft | 238 kts | 186° |
| 2026-05-06 01:32 | 32.87653 | -97.16490 | 10537 ft | 239 kts | 186° |
| 2026-05-06 01:32 | 32.85988 | -97.16406 | 10312 ft | 242 kts | 185° |
| 2026-05-06 01:32 | 32.84288 | -97.16317 | 10087 ft | 248 kts | 185° |
| 2026-05-06 01:32 | 32.82552 | -97.16224 | 9833 ft | 250 kts | 185° |
| 2026-05-06 01:33 | 32.80821 | -97.16126 | 9606 ft | 246 kts | 184° |
| 2026-05-06 01:33 | 32.79130 | -97.16052 | 9338 ft | 240 kts | 186° |
| 2026-05-06 01:33 | 32.77492 | -97.16045 | 9104 ft | 232 kts | 187° |
| 2026-05-06 01:33 | 32.75896 | -97.16050 | 8828 ft | 225 kts | 187° |
| 2026-05-06 01:34 | 32.74349 | -97.16056 | 8609 ft | 221 kts | 187° |
| 2026-05-06 01:34 | 32.72811 | -97.16063 | 8407 ft | 221 kts | 186° |
| 2026-05-06 01:34 | 32.71248 | -97.15890 | 7869 ft | 240 kts | 163° |
| 2026-05-06 01:34 | 32.69834 | -97.14762 | 7305 ft | 249 kts | 146° |
| 2026-05-06 01:35 | 32.68455 | -97.13486 | 6708 ft | 252 kts | 146° |
| 2026-05-06 01:35 | 32.67107 | -97.12194 | 6308 ft | 247 kts | 135° |
| 2026-05-06 01:35 | 32.66337 | -97.10424 | 5986 ft | 241 kts | 103° |
| 2026-05-06 01:35 | 32.66401 | -97.08480 | 5663 ft | 235 kts | 74° |
| 2026-05-06 01:36 | 32.67292 | -97.06912 | 5055 ft | 240 kts | 34° |
| 2026-05-06 01:36 | 32.68827 | -97.06158 | 4508 ft | 241 kts | 13° |
| 2026-05-06 01:36 | 32.70491 | -97.05825 | 3974 ft | 242 kts | 6° |
| 2026-05-06 01:36 | 32.72126 | -97.05653 | 3599 ft | 230 kts | 5° |
| 2026-05-06 01:37 | 32.73665 | -97.05565 | 3310 ft | 216 kts | 2° |
| 2026-05-06 01:37 | 32.75118 | -97.05548 | 3071 ft | 197 kts | 2° |
| 2026-05-06 01:37 | 32.76415 | -97.05543 | 2797 ft | 176 kts | 1° |
| 2026-05-06 01:37 | 32.77567 | -97.05539 | 2561 ft | 156 kts | 1° |
| 2026-05-06 01:38 | 32.78596 | -97.05532 | 2381 ft | 143 kts | 1° |
| 2026-05-06 01:38 | 32.79590 | -97.05526 | 2203 ft | 144 kts | 2° |
| 2026-05-06 01:38 | 32.80603 | -97.05521 | 2005 ft | 146 kts | 0° |
| 2026-05-06 01:38 | 32.81626 | -97.05520 | 1845 ft | 148 kts | 2° |
| 2026-05-06 01:39 | 32.82632 | -97.05499 | 1695 ft | 141 kts | 2° |
| 2026-05-06 01:39 | 32.83622 | -97.05513 | 1395 ft | 145 kts | 358° |
| 2026-05-06 01:39 | 32.84636 | -97.05495 | 1217 ft | 147 kts | 1° |
| 2026-05-06 01:39 | 32.85675 | -97.05475 | 1080 ft | 149 kts | 355° |
| 2026-05-06 01:40 | 32.86684 | -97.05490 | 851 ft | 142 kts | 1° |
| 2026-05-06 01:40 | 32.87677 | -97.05478 | 696 ft | 142 kts | 1° |
| 2026-05-06 01:40 | 32.88604 | -97.05464 | 596 ft | 123 kts | 356° |
| 2026-05-06 01:40 | 32.89330 | -97.05471 | 601 ft | 83 kts | 359° |
| 2026-05-06 01:41 | 32.89814 | -97.05472 | 615 ft | 63 kts | 0° |
| 2026-05-06 01:41 | 32.90217 | -97.05441 | 608 ft | 39 kts | 22° |
| 2026-05-06 01:41 | 32.90426 | -97.05309 | 601 ft | 25 kts | 30° |
| 2026-05-06 01:41 | 32.90586 | -97.05274 | 601 ft | 23 kts | 358° |
| 2026-05-06 01:42 | 32.90744 | -97.05274 | 605 ft | 22 kts | 1° |
| 2026-05-06 01:42 | 32.90834 | -97.05271 | 609 ft | 2 kts | 2° |
| 2026-05-06 01:42 | 32.90873 | -97.05271 | 616 ft | 6 kts | 355° |
| 2026-05-06 01:42 | 32.90911 | -97.05306 | 616 ft | 8 kts | 287° |
| 2026-05-06 01:43 | 32.90913 | -97.05384 | 611 ft | 12 kts | 268° |
| 2026-05-06 01:43 | 32.90910 | -97.05495 | 613 ft | 17 kts | 268° |
| 2026-05-06 01:43 | 32.90912 | -97.05642 | 610 ft | 20 kts | 271° |
| 2026-05-06 01:43 | 32.90912 | -97.05743 | 612 ft | 9 kts | 260° |
| 2026-05-06 01:44 | 32.90850 | -97.05789 | 620 ft | 13 kts | 178° |
| 2026-05-06 01:44 | 32.90747 | -97.05785 | 621 ft | 18 kts | 180° |
| 2026-05-06 01:44 | 32.90598 | -97.05787 | 620 ft | 24 kts | 180° |
| 2026-05-06 01:44 | 32.90422 | -97.05787 | 619 ft | 27 kts | 180° |
| 2026-05-06 01:45 | 32.90206 | -97.05788 | 614 ft | 35 kts | 180° |
| 2026-05-06 01:45 | 32.89967 | -97.05790 | 604 ft | 27 kts | 180° |
| 2026-05-06 01:45 | 32.89847 | -97.05790 | 601 ft | 14 kts | 181° |
| 2026-05-06 01:45 | 32.89734 | -97.05790 | 601 ft | 18 kts | 180° |
| 2026-05-06 01:46 | 32.89658 | -97.05820 | 601 ft | 11 kts | 252° |
| 2026-05-06 01:46 | 32.89648 | -97.05931 | 601 ft | 15 kts | 270° |
| 2026-05-06 01:46 | 32.89675 | -97.05992 | 602 ft | 2 kts | 337° |
| 2026-05-06 01:46 | 32.89699 | -97.05996 | 602 ft | 4 kts | 358° |
| 2026-05-06 01:47 | 32.89729 | -97.05995 | 602 ft | 3 kts | 2° |
| 2026-05-06 01:47 | 32.89737 | -97.05995 | 602 ft | 0 kts | 1° |